createdAt,value
2018-11-04T00:00:39.433Z,31.80
2018-11-04T00:03:10.396Z,31.83
2018-11-04T00:05:40.568Z,30.70
2018-11-04T00:08:10.710Z,29.23
2018-11-04T00:10:41.524Z,29.60
2018-11-04T00:13:11.492Z,31.00
2018-11-04T00:15:42.877Z,32.43
2018-11-04T00:18:12.696Z,30.47
2018-11-04T00:20:46.921Z,31.17
2018-11-04T00:23:17.580Z,34.80
2018-11-04T00:25:47.787Z,32.83
2018-11-04T00:28:18.127Z,31.00
2018-11-04T00:30:47.910Z,33.30
2018-11-04T00:33:18.716Z,34.23
2018-11-04T00:35:49.958Z,32.33
2018-11-04T00:38:19.966Z,34.97
2018-11-04T00:40:50.808Z,37.60
2018-11-04T00:43:20.634Z,33.00
2018-11-04T00:45:50.440Z,34.53
2018-11-04T00:48:21.484Z,33.20
2018-11-04T00:50:53.294Z,31.03
2018-11-04T00:53:25.216Z,30.97
2018-11-04T00:55:56.781Z,31.00
2018-11-04T00:58:27.973Z,31.57
2018-11-04T01:00:59.434Z,30.87
2018-11-04T01:03:29.353Z,31.83
2018-11-04T01:05:59.094Z,33.40
2018-11-04T01:08:30.383Z,33.57
2018-11-04T01:11:02.038Z,33.50
2018-11-04T01:13:32.318Z,30.80
2018-11-04T01:16:03.131Z,32.20
2018-11-04T01:18:33.289Z,32.47
2018-11-04T01:21:03.516Z,32.20
2018-11-04T01:23:33.690Z,31.73
2018-11-04T01:26:05.125Z,33.13
2018-11-04T01:28:36.045Z,30.23
2018-11-04T01:31:07.660Z,30.37
2018-11-04T01:33:37.988Z,28.90
2018-11-04T01:37:27.341Z,31.17
2018-11-04T01:39:59.184Z,30.13
2018-11-04T01:42:30.950Z,30.03
2018-11-04T01:45:02.084Z,29.00
2018-11-04T01:47:33.390Z,29.17
2018-11-04T01:50:03.642Z,29.53
2018-11-04T01:52:33.838Z,29.87
2018-11-04T01:55:04.137Z,29.93
2018-11-04T01:57:35.423Z,30.50
2018-11-04T02:00:06.951Z,29.93
2018-11-04T02:02:37.209Z,30.53
2018-11-04T02:05:07.756Z,29.53
2018-11-04T02:07:37.452Z,29.07
2018-11-04T02:10:08.511Z,29.53
2018-11-04T02:12:38.268Z,28.77
2018-11-04T02:15:10.832Z,29.37
2018-11-04T02:17:41.861Z,28.13
2018-11-04T02:20:13.028Z,28.07
2018-11-04T02:22:43.339Z,28.93
2018-11-04T02:25:15.064Z,28.73
2018-11-04T02:27:45.205Z,28.97
2018-11-04T02:30:17.619Z,28.90
2018-11-04T02:32:47.753Z,27.67
2018-11-04T02:35:17.533Z,27.70
2018-11-04T02:37:47.992Z,27.43
2018-11-04T02:40:19.256Z,26.60
2018-11-04T02:42:50.955Z,27.23
2018-11-04T02:45:21.384Z,27.70
2018-11-04T02:47:51.636Z,27.60
2018-11-04T02:50:22.460Z,29.80
2018-11-04T02:52:55.903Z,28.00
2018-11-04T02:55:26.137Z,28.77
2018-11-04T02:57:56.258Z,29.10
2018-11-04T03:00:27.670Z,29.77
2018-11-04T03:02:57.389Z,28.23
2018-11-04T03:05:27.081Z,27.40
2018-11-04T03:07:57.191Z,27.93
2018-11-04T03:10:28.014Z,27.60
2018-11-04T03:12:59.739Z,28.00
2018-11-04T03:15:31.855Z,30.13
2018-11-04T03:18:02.097Z,30.80
2018-11-04T03:20:32.578Z,30.43
2018-11-04T03:23:02.344Z,29.47
2018-11-04T03:25:33.862Z,29.87
2018-11-04T03:28:04.908Z,29.07
2018-11-04T03:30:35.210Z,29.77
2018-11-04T03:33:06.894Z,28.80
2018-11-04T03:35:37.185Z,29.43
2018-11-04T03:38:08.499Z,28.13
2018-11-04T03:40:38.742Z,28.97
2018-11-04T03:43:10.170Z,32.03
2018-11-04T03:45:41.228Z,32.20
2018-11-04T03:48:12.179Z,31.87
2018-11-04T03:50:42.579Z,32.10
2018-11-04T03:53:12.795Z,33.27
2018-11-04T03:55:43.165Z,32.63
2018-11-04T03:58:13.605Z,31.53
2018-11-04T04:00:43.581Z,32.33
2018-11-04T04:03:13.260Z,31.60
2018-11-04T04:05:43.634Z,32.20
2018-11-04T04:08:13.335Z,30.40
2018-11-04T04:10:48.390Z,30.57
2018-11-04T04:13:18.169Z,29.13
2018-11-04T04:15:48.328Z,27.93
2018-11-04T04:18:18.433Z,30.10
2018-11-04T04:20:49.273Z,28.27
2018-11-04T04:23:20.188Z,28.80
2018-11-04T04:25:51.039Z,28.90
2018-11-04T04:28:22.563Z,27.90
2018-11-04T04:30:54.337Z,28.67
2018-11-04T04:33:24.159Z,27.97
2018-11-04T04:35:57.110Z,27.43
2018-11-04T04:38:27.066Z,27.47
2018-11-04T04:40:57.051Z,27.03
2018-11-04T04:43:27.484Z,27.93
2018-11-04T04:45:57.395Z,26.50
2018-11-04T04:48:29.246Z,26.23
2018-11-04T04:51:00.512Z,26.20
2018-11-04T04:53:30.571Z,26.70
2018-11-04T04:57:03.969Z,24.87
2018-11-04T04:59:33.696Z,23.50
2018-11-04T05:02:04.510Z,24.13
2018-11-04T05:09:20.635Z,24.67
2018-11-04T05:11:50.548Z,24.00
2018-11-04T05:14:20.797Z,24.03
2018-11-04T05:16:50.784Z,23.33
2018-11-04T05:19:21.823Z,24.37
2018-11-04T05:21:52.392Z,22.27
2018-11-04T05:24:22.961Z,21.93
2018-11-04T05:26:52.851Z,22.83
2018-11-04T05:29:23.022Z,22.17
2018-11-04T05:31:52.936Z,23.23
2018-11-04T05:34:22.740Z,22.97
2018-11-04T05:36:52.406Z,22.90
2018-11-04T05:39:22.185Z,23.93
2018-11-04T05:41:51.995Z,23.40
2018-11-04T05:44:21.787Z,24.07
2018-11-04T05:46:51.967Z,24.37
2018-11-04T05:49:21.697Z,24.83
2018-11-04T05:51:51.874Z,24.30
2018-11-04T05:54:21.698Z,24.13
2018-11-04T05:56:51.736Z,23.10
2018-11-04T05:59:24.041Z,23.87
2018-11-04T06:01:53.893Z,24.93
2018-11-04T06:04:23.865Z,25.27
2018-11-04T06:06:53.778Z,24.70
2018-11-04T06:09:28.380Z,24.47
2018-11-04T06:11:58.319Z,23.73
2018-11-04T06:14:28.343Z,27.37
2018-11-04T06:16:58.505Z,24.80
2018-11-04T06:19:28.422Z,25.73
2018-11-04T06:21:58.606Z,24.30
2018-11-04T06:24:28.273Z,26.43
2018-11-04T06:26:59.192Z,26.07
2018-11-04T06:29:38.151Z,26.00
2018-11-04T06:32:08.286Z,25.53
2018-11-04T06:34:38.210Z,26.83
2018-11-04T06:37:08.385Z,28.23
2018-11-04T06:39:38.303Z,30.00
2018-11-04T06:42:08.167Z,29.93
2018-11-04T06:44:38.505Z,31.97
2018-11-04T06:47:08.503Z,32.23
2018-11-04T06:49:38.357Z,33.13
2018-11-04T06:52:08.714Z,32.27
2018-11-04T06:54:38.562Z,32.87
2018-11-04T06:57:08.556Z,31.80
2018-11-04T06:59:38.764Z,31.33
2018-11-04T07:02:08.761Z,29.43
2018-11-04T07:04:38.580Z,30.63
2018-11-04T07:07:08.796Z,29.57
2018-11-04T07:09:38.720Z,30.53
2018-11-04T07:12:08.624Z,28.67
2018-11-04T07:14:38.613Z,29.50
2018-11-04T07:17:08.620Z,28.77
2018-11-04T07:19:38.500Z,27.67
2018-11-04T07:22:08.460Z,27.37
2018-11-04T07:24:38.324Z,27.13
2018-11-04T07:27:08.575Z,26.73
2018-11-04T07:29:38.441Z,26.77
2018-11-04T07:32:09.091Z,26.23
2018-11-04T07:34:39.548Z,24.60
2018-11-04T07:37:10.230Z,23.80
2018-11-04T07:39:40.049Z,23.17
2018-11-04T07:42:10.642Z,24.80
2018-11-04T07:44:40.350Z,24.27
2018-11-04T07:47:10.087Z,24.03
2018-11-04T07:49:40.269Z,22.73
2018-11-04T07:52:10.070Z,24.00
2018-11-04T07:54:40.047Z,23.80
2018-11-04T07:57:10.489Z,23.07
2018-11-04T07:59:40.446Z,22.07
2018-11-04T08:02:10.607Z,24.27
2018-11-04T08:04:41.034Z,23.43
2018-11-04T08:07:11.126Z,25.20
2018-11-04T08:09:41.588Z,22.93
2018-11-04T08:12:12.359Z,23.80
2018-11-04T08:14:42.431Z,23.07
2018-11-04T08:17:12.761Z,22.73
2018-11-04T08:19:42.435Z,23.13
2018-11-04T08:22:12.213Z,22.47
2018-11-04T08:24:42.071Z,24.53
2018-11-04T08:27:11.996Z,23.77
2018-11-04T08:29:42.979Z,25.50
2018-11-04T08:32:13.301Z,24.67
2018-11-04T08:34:43.098Z,26.13
2018-11-04T08:37:13.621Z,26.13
2018-11-04T08:39:43.367Z,25.70
2018-11-04T08:42:13.061Z,26.07
2018-11-04T08:44:43.041Z,28.20
2018-11-04T08:47:12.831Z,26.40
2018-11-04T08:49:42.646Z,26.07
2018-11-04T08:52:12.304Z,26.37
2018-11-04T08:54:42.096Z,27.60
2018-11-04T08:57:12.008Z,26.43
2018-11-04T08:59:42.428Z,27.10
2018-11-04T09:02:12.189Z,28.10
2018-11-04T09:04:41.851Z,26.90
2018-11-04T09:07:11.790Z,28.97
2018-11-04T09:09:41.495Z,27.70
2018-11-04T09:12:11.251Z,28.77
2018-11-04T09:14:41.827Z,35.83
2018-11-04T09:17:11.963Z,30.00
2018-11-04T09:19:41.615Z,29.27
2018-11-04T09:22:11.545Z,28.80
2018-11-04T09:24:41.332Z,28.17
2018-11-04T09:27:11.100Z,30.23
2018-11-04T09:29:41.228Z,29.97
2018-11-04T09:32:11.894Z,33.67
2018-11-04T09:34:41.741Z,31.10
2018-11-04T09:37:11.571Z,29.97
2018-11-04T09:39:42.089Z,30.93
2018-11-04T09:42:12.265Z,31.97
2018-11-04T09:44:42.941Z,33.60
2018-11-04T09:47:12.910Z,30.80
2018-11-04T09:49:42.757Z,31.40
2018-11-04T09:52:15.370Z,32.50
2018-11-04T09:54:45.137Z,31.60
2018-11-04T09:57:14.809Z,31.07
2018-11-04T09:59:45.259Z,31.47
2018-11-04T10:02:15.089Z,31.87
2018-11-04T10:04:50.654Z,33.17
2018-11-04T10:07:21.052Z,33.33
2018-11-04T10:09:51.348Z,30.63
2018-11-04T10:12:21.040Z,30.60
2018-11-04T10:14:51.799Z,31.37
2018-11-04T10:17:21.809Z,30.67
2018-11-04T10:19:51.806Z,32.77
2018-11-04T10:22:21.607Z,30.40
2018-11-04T10:24:51.609Z,30.83
2018-11-04T10:27:21.360Z,31.00
2018-11-04T10:29:51.539Z,29.53
2018-11-04T10:32:22.106Z,32.23
2018-11-04T10:34:52.423Z,29.30
2018-11-04T10:37:22.242Z,31.27
2018-11-04T10:39:51.976Z,31.27
2018-11-04T10:42:21.810Z,28.43
2018-11-04T10:44:51.643Z,29.47
2018-11-04T10:47:21.385Z,29.30
2018-11-04T10:49:51.487Z,29.77
2018-11-04T10:52:21.237Z,30.60
2018-11-04T10:54:51.204Z,29.87
2018-11-04T10:57:20.983Z,30.10
2018-11-04T10:59:51.075Z,30.20
2018-11-04T11:02:21.364Z,28.27
2018-11-04T11:04:51.168Z,28.40
2018-11-04T11:07:23.962Z,29.57
2018-11-04T11:09:54.041Z,30.60
2018-11-04T11:12:25.328Z,31.57
2018-11-04T11:14:55.978Z,31.33
2018-11-04T11:17:25.892Z,30.90
2018-11-04T11:19:55.794Z,29.50
2018-11-04T11:22:25.991Z,29.53
2018-11-04T11:24:55.764Z,30.77
2018-11-04T11:27:25.432Z,37.30
2018-11-04T11:29:55.461Z,31.60
2018-11-04T11:32:25.184Z,29.40
2018-11-04T11:34:55.004Z,29.27
2018-11-04T11:37:24.876Z,29.47
2018-11-04T11:39:54.655Z,29.23
2018-11-04T11:42:24.377Z,28.10
2018-11-04T11:44:55.033Z,30.17
2018-11-04T11:47:24.971Z,31.03
2018-11-04T11:49:54.749Z,29.93
2018-11-04T11:52:24.566Z,30.47
2018-11-04T11:54:54.327Z,31.27
2018-11-04T11:57:24.121Z,30.27
2018-11-04T11:59:54.247Z,30.27
2018-11-04T12:02:24.020Z,30.47
2018-11-04T12:04:53.916Z,30.97
2018-11-04T12:07:23.704Z,30.13
2018-11-04T12:09:53.611Z,30.63
2018-11-04T12:12:23.575Z,31.73
2018-11-04T12:14:53.284Z,30.83
2018-11-04T12:17:23.869Z,30.10
2018-11-04T12:19:54.521Z,30.47
2018-11-04T12:22:24.258Z,29.63
2018-11-04T12:24:54.044Z,30.17
2018-11-04T12:27:24.025Z,29.77
2018-11-04T12:29:55.336Z,31.73
2018-11-04T12:32:26.073Z,31.07
2018-11-04T12:34:55.751Z,30.53
2018-11-04T12:37:25.564Z,28.83
2018-11-04T12:39:55.392Z,31.80
2018-11-04T12:42:25.447Z,29.13
2018-11-04T12:44:55.252Z,29.13
2018-11-04T12:47:25.827Z,29.30
2018-11-04T12:49:56.003Z,29.87
2018-11-04T12:52:26.681Z,30.07
2018-11-04T12:54:56.464Z,29.90
2018-11-04T12:57:26.468Z,31.53
2018-11-04T12:59:56.203Z,29.50
2018-11-04T13:02:26.964Z,31.17
2018-11-04T13:04:57.804Z,30.00
2018-11-04T13:07:28.687Z,30.97
2018-11-04T13:09:58.510Z,29.20
2018-11-04T13:12:29.378Z,29.00
2018-11-04T13:14:59.657Z,30.17
2018-11-04T13:17:30.136Z,30.07
2018-11-04T13:20:00.652Z,28.90
2018-11-04T13:22:30.359Z,30.63
2018-11-04T13:25:00.086Z,28.43
2018-11-04T13:27:30.800Z,30.30
2018-11-04T13:30:00.539Z,30.07
2018-11-04T13:32:30.341Z,31.03
2018-11-04T13:35:00.290Z,30.30
2018-11-04T13:37:30.177Z,32.13
2018-11-04T13:40:00.194Z,31.40
2018-11-04T13:42:30.019Z,30.70
2018-11-04T13:45:00.069Z,30.80
2018-11-04T13:47:29.849Z,31.63
2018-11-04T13:49:59.638Z,32.30
2018-11-04T13:52:29.867Z,29.63
2018-11-04T13:54:59.770Z,31.40
2018-11-04T13:57:29.744Z,30.93
2018-11-04T13:59:59.920Z,30.17
2018-11-04T14:02:29.745Z,31.10
2018-11-04T14:04:59.655Z,30.97
2018-11-04T14:07:29.516Z,31.97
2018-11-04T14:10:00.131Z,31.90
2018-11-04T14:12:30.960Z,31.70
2018-11-04T14:15:05.857Z,32.27
2018-11-04T14:17:36.548Z,31.80
2018-11-04T14:20:11.005Z,31.73
2018-11-04T14:22:41.757Z,29.77
2018-11-04T14:25:13.047Z,32.63
2018-11-04T14:27:45.022Z,31.73
2018-11-04T14:30:16.739Z,33.10
2018-11-04T14:32:47.655Z,34.07
2018-11-04T14:35:18.196Z,31.93
2018-11-04T14:37:48.892Z,31.70
2018-11-04T14:40:19.296Z,35.10
2018-11-04T14:42:50.027Z,34.47
2018-11-04T14:45:21.341Z,32.67
2018-11-04T14:47:52.452Z,32.80
2018-11-04T14:50:23.175Z,32.30
2018-11-04T14:52:53.816Z,33.20
2018-11-04T14:55:24.845Z,33.93
2018-11-04T14:57:55.218Z,31.67
2018-11-04T15:00:25.907Z,33.27
2018-11-04T15:02:57.019Z,31.77
2018-11-04T15:05:27.375Z,33.00
2018-11-04T15:07:57.583Z,31.23
2018-11-04T15:10:27.896Z,31.93
2018-11-04T15:12:58.501Z,33.27
2018-11-04T15:15:29.019Z,32.17
2018-11-04T15:17:59.387Z,31.30
2018-11-04T15:20:29.632Z,31.33
2018-11-04T15:23:00.257Z,32.50
2018-11-04T15:25:30.628Z,33.27
2018-11-04T15:28:01.007Z,31.90
2018-11-04T15:30:31.295Z,34.03
2018-11-04T15:33:01.423Z,34.00
2018-11-04T15:35:32.105Z,33.47
2018-11-04T15:38:02.452Z,34.37
2018-11-04T15:40:32.732Z,32.73
2018-11-04T15:43:03.042Z,34.30
2018-11-04T15:45:33.279Z,33.67
2018-11-04T15:48:03.908Z,34.70
2018-11-04T15:50:34.289Z,40.97
2018-11-04T15:53:05.077Z,35.00
2018-11-04T15:55:35.584Z,34.83
2018-11-04T15:58:06.102Z,36.17
2018-11-04T16:00:36.828Z,35.67
2018-11-04T16:03:07.317Z,34.87
2018-11-04T16:05:37.860Z,36.63
2018-11-04T16:08:08.374Z,36.03
2018-11-04T16:10:39.652Z,35.40
2018-11-04T16:13:10.074Z,37.37
2018-11-04T16:15:40.388Z,36.43
2018-11-04T16:18:10.624Z,36.67
2018-11-04T16:20:41.281Z,35.73
2018-11-04T16:23:12.012Z,34.20
2018-11-04T16:25:42.486Z,36.17
2018-11-04T16:28:13.251Z,35.17
2018-11-04T16:30:43.590Z,36.83
2018-11-04T16:33:14.026Z,37.03
2018-11-04T16:35:44.743Z,37.60
2018-11-04T16:38:17.283Z,35.17
2018-11-04T16:40:49.061Z,33.23
2018-11-04T16:43:21.313Z,34.47
2018-11-04T16:45:54.953Z,35.67
2018-11-04T16:49:15.007Z,35.03
2018-11-04T16:51:45.000Z,35.40
2018-11-04T16:54:16.735Z,35.50
2018-11-04T16:56:47.502Z,34.90
2018-11-04T16:59:17.313Z,34.80
2018-11-04T17:01:47.014Z,34.73
2018-11-04T17:04:17.210Z,33.53
2018-11-04T17:06:46.980Z,44.77
2018-11-04T17:09:16.782Z,35.47
2018-11-04T17:11:52.169Z,35.03
2018-11-04T17:14:21.883Z,33.80
2018-11-04T17:16:53.422Z,36.50
2018-11-04T17:19:23.146Z,33.63
2018-11-04T17:21:52.999Z,33.27
2018-11-04T17:24:22.912Z,34.87
2018-11-04T17:26:52.750Z,35.77
2018-11-04T17:29:22.508Z,35.37
2018-11-04T17:31:52.282Z,36.50
2018-11-04T17:34:22.823Z,35.27
2018-11-04T17:36:52.604Z,36.80
2018-11-04T17:39:22.346Z,38.27
2018-11-04T17:41:52.238Z,38.60
2018-11-04T17:44:22.191Z,37.73
2018-11-04T17:46:52.393Z,40.20
2018-11-04T17:49:22.140Z,38.40
2018-11-04T17:51:52.253Z,38.70
2018-11-04T17:54:22.445Z,38.67
2018-11-04T17:56:52.295Z,39.30
2018-11-04T17:59:22.039Z,36.67
2018-11-04T18:01:57.212Z,38.80
2018-11-04T18:04:33.784Z,39.50
2018-11-04T18:07:05.295Z,40.20
2018-11-04T18:09:35.102Z,39.83
2018-11-04T18:12:06.298Z,41.13
2018-11-04T18:14:36.560Z,42.07
2018-11-04T18:17:06.911Z,41.17
2018-11-04T18:19:37.445Z,41.90
2018-11-04T18:22:08.591Z,40.50
2018-11-04T18:24:38.398Z,42.13
2018-11-04T18:27:08.195Z,42.43
2018-11-04T18:29:38.421Z,41.70
2018-11-04T18:32:31.537Z,40.57
2018-11-04T18:35:02.483Z,41.10
2018-11-04T18:37:32.221Z,40.93
2018-11-04T18:40:02.617Z,43.97
2018-11-04T18:42:54.292Z,41.67
2018-11-04T18:48:24.642Z,48.33
2018-11-04T18:50:56.299Z,50.80
2018-11-04T18:53:28.770Z,43.00
2018-11-04T18:56:01.313Z,42.67
2018-11-04T18:58:32.753Z,42.77
2018-11-04T19:01:04.727Z,41.07
2018-11-04T19:03:35.441Z,43.20
2018-11-04T19:06:07.255Z,43.07
2018-11-04T19:08:38.340Z,44.30
2018-11-04T19:11:10.230Z,43.40
2018-11-04T19:13:42.901Z,44.07
2018-11-04T19:16:17.779Z,42.90
2018-11-04T19:18:49.206Z,43.27
2018-11-04T19:21:18.982Z,44.30
2018-11-04T19:23:48.981Z,43.43
2018-11-04T19:26:19.970Z,44.13
2018-11-04T19:28:49.858Z,42.63
2018-11-04T19:31:20.957Z,42.93
2018-11-04T19:33:50.701Z,50.20
2018-11-04T19:36:21.305Z,44.73
2018-11-04T19:38:52.553Z,43.13
2018-11-04T19:41:22.747Z,43.83
2018-11-04T19:43:53.646Z,44.37
2018-11-04T19:46:23.460Z,44.27
2018-11-04T19:48:54.096Z,45.33
2018-11-04T19:51:23.869Z,44.27
2018-11-04T19:53:55.360Z,44.53
2018-11-04T19:56:26.962Z,44.30
2018-11-04T19:58:58.994Z,44.13
2018-11-04T20:01:32.331Z,45.40
2018-11-04T20:04:02.766Z,52.27
2018-11-04T20:06:33.431Z,46.33
2018-11-04T20:09:09.018Z,47.13
2018-11-04T20:11:38.895Z,45.07
2018-11-04T20:14:20.892Z,48.20
2018-11-04T20:16:53.136Z,47.50
2018-11-04T20:19:31.625Z,48.87
2018-11-04T20:22:03.588Z,46.77
2018-11-04T20:24:39.701Z,50.17
2018-11-04T20:27:11.878Z,49.43
2018-11-04T20:29:46.059Z,48.47
2018-11-04T20:32:22.290Z,49.73
2018-11-04T20:34:54.351Z,49.30
2018-11-04T20:37:25.116Z,50.30
2018-11-04T20:40:01.680Z,50.07
2018-11-04T20:42:34.924Z,50.83
2018-11-04T20:45:06.687Z,50.67
2018-11-04T20:47:46.401Z,49.07
2018-11-04T20:50:23.844Z,49.30
2018-11-04T20:52:54.950Z,51.90
2018-11-04T20:55:30.538Z,52.10
2018-11-04T20:58:07.289Z,52.33
2018-11-04T21:00:45.729Z,51.87
2018-11-04T21:03:18.515Z,51.30
2018-11-04T21:05:51.219Z,50.97
2018-11-04T21:08:22.714Z,53.73
2018-11-04T21:10:54.719Z,53.77
2018-11-04T21:13:25.295Z,50.83
2018-11-04T21:16:00.447Z,54.00
2018-11-04T21:18:31.838Z,54.67
2018-11-04T21:21:02.913Z,56.20
2018-11-04T21:23:33.802Z,54.30
2018-11-04T21:26:05.927Z,55.13
2018-11-04T21:28:37.576Z,53.50
2018-11-04T21:31:08.414Z,53.30
2018-11-04T21:33:39.615Z,53.43
2018-11-04T21:36:13.964Z,59.23
2018-11-04T21:38:45.909Z,52.93
2018-11-04T21:41:17.623Z,55.17
2018-11-04T21:43:49.833Z,55.43
2018-11-04T21:46:20.310Z,55.33
2018-11-04T21:48:51.230Z,52.90
2018-11-04T21:51:22.792Z,56.17
2018-11-04T21:53:57.215Z,54.83
2018-11-04T21:56:28.280Z,56.37
2018-11-04T21:58:58.849Z,56.17
2018-11-04T22:01:30.255Z,55.37
2018-11-04T22:04:01.932Z,55.63
2018-11-04T22:06:32.554Z,53.73
2018-11-04T22:09:04.367Z,56.90
2018-11-04T22:11:37.474Z,57.00
2018-11-04T22:14:08.493Z,57.93
2018-11-04T22:16:40.183Z,54.43
2018-11-04T22:19:11.309Z,56.97
2018-11-04T22:21:42.191Z,56.27
2018-11-04T22:24:13.102Z,55.47
2018-11-04T22:26:43.656Z,58.20
2018-11-04T22:29:19.390Z,57.07
2018-11-04T22:31:52.682Z,58.43
2018-11-04T22:34:25.546Z,58.10
2018-11-04T22:36:57.743Z,57.47
2018-11-04T22:39:28.957Z,57.37
2018-11-04T22:42:01.395Z,56.70
2018-11-04T22:44:33.040Z,59.57
2018-11-04T22:47:04.370Z,57.10
2018-11-04T22:49:35.744Z,60.30
2018-11-04T22:52:06.740Z,58.60
2018-11-04T22:54:38.097Z,56.87
2018-11-04T22:57:09.304Z,57.43
2018-11-04T22:59:40.679Z,57.20
2018-11-04T23:02:10.961Z,56.00
2018-11-04T23:04:46.090Z,55.93
2018-11-04T23:07:16.877Z,55.63
2018-11-04T23:09:48.426Z,57.13
2018-11-04T23:12:20.454Z,57.63
2018-11-04T23:14:51.912Z,57.67
2018-11-04T23:17:24.782Z,59.80
2018-11-04T23:19:55.360Z,58.27
2018-11-04T23:22:27.851Z,56.40
2018-11-04T23:24:59.378Z,57.43
2018-11-04T23:27:32.209Z,56.63
2018-11-04T23:30:03.638Z,59.43
2018-11-04T23:32:34.226Z,55.27
2018-11-04T23:35:05.378Z,58.67
2018-11-04T23:37:36.847Z,58.60
2018-11-04T23:40:09.189Z,59.67
2018-11-04T23:42:40.997Z,58.13
2018-11-04T23:45:14.433Z,57.47
2018-11-04T23:47:46.287Z,58.53
2018-11-04T23:50:18.652Z,58.67
2018-11-04T23:52:49.870Z,58.93
2018-11-04T23:55:20.936Z,56.60
2018-11-04T23:57:52.746Z,59.97
